This is the latest recevied weather packets stored in our database for station/object EA1AV-7. If no packets are shown the sender has not sent any weather packets the latest 10 day(s).
| Time | Temp. | Humidity | Pressure | Rain* | Wind** | Luminosity | Snow |
|---|---|---|---|---|---|---|---|
| 1777741643 | 28.33° C | 42% | 919.2 hPa | - | - | - | - |
| 1777741343 | 29.44° C | 41% | 919.3 hPa | - | - | - | - |
| 1777741043 | 30° C | 41% | 919.4 hPa | - | - | - | - |
| 1777740743 | 30.56° C | 40% | 919.3 hPa | - | - | - | - |
| 1777740443 | 31.11° C | 41% | 919.3 hPa | - | - | - | - |
| 1777740143 | 31.67° C | 40% | 919.2 hPa | - | - | - | - |
| 1777739843 | 32.22° C | 40% | 919.3 hPa | - | - | - | - |
| 1777739543 | 32.78° C | 40% | 919.3 hPa | - | - | - | - |
| 1777739243 | 33.89° C | 40% | 919.4 hPa | - | - | - | - |
| 1777738938 | 33.89° C | 41% | 919.4 hPa | - | - | - | - |
| 1777738637 | 33.89° C | 42% | 919.3 hPa | - | - | - | - |
| 1777738338 | 32.22° C | 45% | 919.4 hPa | - | - | - | - |
| 1777738038 | 28.89° C | 49% | 919.5 hPa | - | - | - | - |
| 1777665369 | 27.22° C | 35% | 924 hPa | - | - | - | - |
| 1777665069 | 27.22° C | 36% | 924 hPa | - | - | - | - |
| 1777664769 | 27.22° C | 36% | 924.1 hPa | - | - | - | - |
| 1777664469 | 27.22° C | 36% | 923.9 hPa | - | - | - | - |
| 1777664169 | 27.22° C | 38% | 924 hPa | - | - | - | - |
| 1777663869 | 26.11° C | 36% | 924 hPa | - | - | - | - |
| 1777663569 | 25.56° C | 36% | 923.9 hPa | - | - | - | - |
| 1777663269 | 25.56° C | 34% | 924 hPa | - | - | - | - |
| 1777662969 | 25.56° C | 34% | 923.9 hPa | - | - | - | - |
| 1777662669 | 26.11° C | 33% | 923.7 hPa | - | - | - | - |
| 1777662369 | 26.67° C | 32% | 923.7 hPa | - | - | - | - |
| 1777662069 | 26.67° C | 32% | 923.3 hPa | - | - | - | - |
* Rain since midnight (hover to see other rain measurements)
** Current wind speed in m/s (hover to see current wind gust speed)